Time;durP1;ratioP1;P1;durP2;ratioP2;P2;SDS_P1;SDS_P2;PMS_P1;PMS_P2;Temp;Humidity;BMP_temperature;BMP_pressure;BME280_temperature;BME280_humidity;BME280_pressure;Samples;Min_cycle;Max_cycle;Signal;HPM_P1;HPM_P2
2022/12/19 00:01:16;;;;;;;;;;;;;;;1.32;64.69;101649.44;5013219;28;19918;-69
2022/12/19 00:03:48;;;;;;;;;;;;;;;1.33;64.94;101644.94;5013619;28;19937;-69
2022/12/19 00:06:14;;;;;;;;;;;;;;;1.34;65.08;101644.78;5014476;28;20019;-67
2022/12/19 00:08:40;;;;;;;;;;;;;;;1.35;65.05;101632.31;5013563;28;20404;-68
2022/12/19 00:11:05;;;;;;;;;;;;;;;1.35;65.32;101634.97;5017113;28;19918;-68
2022/12/19 00:13:31;;;;;;;;;;;;;;;1.37;65.11;101640.97;5017152;28;19918;-67
2022/12/19 00:16:04;;;;;;;;;;;;;;;1.38;65.24;101640.81;5017172;28;20357;-67
2022/12/19 00:18:29;;;;;;;;;;;;;;;1.39;65.19;101631.84;5017085;28;19914;-67
2022/12/19 00:20:59;;;;;;;;;;;;;;;1.40;65.15;101638.81;5017054;28;19921;-69
2022/12/19 00:23:25;;;;;;;;;;;;;;;1.41;65.05;101634.31;5016883;28;20387;-69
2022/12/19 00:25:50;;;;;;;;;;;;;;;1.41;64.94;101629.84;5016939;28;19914;-68
2022/12/19 00:28:15;;;;;;;;;;;;;;;1.42;65.27;101628.84;5016778;28;19959;-69
2022/12/19 00:30:40;;;;;;;;;;;;;;;1.44;65.04;101623.38;5016458;28;19983;-67
2022/12/19 00:33:05;;;;;;;;;;;;;;;1.45;65.18;101614.38;5017022;28;19924;-72
2022/12/19 00:35:31;;;;;;;;;;;;;;;1.45;65.06;101619.72;5016788;28;19918;-69
2022/12/19 00:37:56;;;;;;;;;;;;;;;1.46;65.04;101614.22;5016565;28;19923;-68
2022/12/19 00:40:22;;;;;;;;;;;;;;;1.46;65.20;101619.56;5016422;28;19918;-69
2022/12/19 00:42:47;;;;;;;;;;;;;;;1.48;65.39;101630.03;5016646;28;19941;-69
2022/12/19 00:45:12;;;;;;;;;;;;;;;1.49;65.17;101621.06;5016774;28;19917;-69
2022/12/19 00:47:37;;;;;;;;;;;;;;;1.49;65.47;101611.25;5015480;28;19924;-68
2022/12/19 00:50:03;;;;;;;;;;;;;;;1.49;65.20;101589.94;5015225;28;19918;-68
2022/12/19 00:52:28;;;;;;;;;;;;;;;1.51;65.15;101589.75;5016162;28;20015;-68
2022/12/19 00:54:53;;;;;;;;;;;;;;;1.52;65.28;101594.94;5016348;28;19964;-67
2022/12/19 00:57:19;;;;;;;;;;;;;;;1.55;65.38;101587.63;5015120;28;19968;-70
2022/12/19 00:59:44;;;;;;;;;;;;;;;1.54;65.62;101585.94;5015158;28;20376;-66
2022/12/19 01:02:09;;;;;;;;;;;;;;;1.55;65.16;101584.97;5016238;28;20381;-69
2022/12/19 01:04:34;;;;;;;;;;;;;;;1.54;65.37;101586.81;5016451;28;20376;-68
2022/12/19 01:07:00;;;;;;;;;;;;;;;1.56;65.41;101583.94;5015108;28;19917;-68
2022/12/19 01:09:25;;;;;;;;;;;;;;;1.55;65.35;101579.63;5015351;28;19917;-66
2022/12/19 01:14:34;;;;;;;;;;;;;;;1.56;65.48;101566.16;5016710;28;19960;-68
2022/12/19 01:16:59;;;;;;;;;;;;;;;1.58;65.52;101574.81;5016315;28;19917;-66
2022/12/19 01:19:25;;;;;;;;;;;;;;;1.59;65.33;101560.50;5015926;28;19924;-69
2022/12/19 01:21:50;;;;;;;;;;;;;;;1.60;65.45;101558.69;5014995;28;19921;-67
2022/12/19 01:24:15;;;;;;;;;;;;;;;1.61;65.55;101555.00;5015775;28;19918;-66
2022/12/19 01:26:41;;;;;;;;;;;;;;;1.62;65.55;101557.50;5015883;28;20002;-68
2022/12/19 01:29:06;;;;;;;;;;;;;;;1.63;65.75;101555.69;5014470;28;19949;-68
2022/12/19 01:31:32;;;;;;;;;;;;;;;1.63;65.53;101553.00;5015749;28;19917;-68
2022/12/19 01:33:58;;;;;;;;;;;;;;;1.64;65.64;101549.38;5015781;28;20337;-67
2022/12/19 01:36:23;;;;;;;;;;;;;;;1.66;65.74;101552.69;5016066;28;19975;-68
2022/12/19 01:38:49;;;;;;;;;;;;;;;1.66;65.58;101553.53;5015885;28;19917;-68
2022/12/19 01:41:14;;;;;;;;;;;;;;;1.68;65.87;101554.19;5015770;28;19922;-67
2022/12/19 01:44:12;;;;;;;;;;;;;;;1.68;65.66;101554.19;5015272;28;19974;-68
2022/12/19 01:46:39;;;;;;;;;;;;;;;1.70;65.62;101551.38;4992844;28;20036;-67
2022/12/19 01:49:06;;;;;;;;;;;;;;;1.71;65.65;101545.03;5015395;28;19920;-67
2022/12/19 01:51:44;;;;;;;;;;;;;;;1.72;65.59;101539.56;5014153;28;19976;-67
2022/12/19 01:54:12;;;;;;;;;;;;;;;1.75;65.90;101540.22;5015711;28;19947;-67
2022/12/19 01:56:41;;;;;;;;;;;;;;;1.75;65.64;101541.06;5015271;28;19963;-68
2022/12/19 01:59:13;;;;;;;;;;;;;;;1.75;65.66;101533.06;5014003;28;19960;-67
2022/12/19 02:01:39;;;;;;;;;;;;;;;1.76;65.65;101533.88;5013628;28;20004;-67
2022/12/19 02:04:05;;;;;;;;;;;;;;;1.77;65.85;101525.75;5014990;28;19936;-69
2022/12/19 02:06:33;;;;;;;;;;;;;;;1.78;65.75;101522.06;5015075;28;19920;-66
2022/12/19 02:08:59;;;;;;;;;;;;;;;1.78;65.62;101506.09;5014029;28;20007;-66
2022/12/19 02:11:24;;;;;;;;;;;;;;;1.80;65.80;101508.59;5014683;28;20399;-70
2022/12/19 02:13:51;;;;;;;;;;;;;;;1.80;65.73;101504.09;5015227;28;19953;-67
2022/12/19 02:16:26;;;;;;;;;;;;;;;1.82;65.99;101504.78;5014941;28;19967;-68
2022/12/19 02:18:52;;;;;;;;;;;;;;;1.84;65.78;101512.56;5014462;28;20336;-66
2022/12/19 02:21:32;;;;;;;;;;;;;;;1.84;65.91;101497.44;5015051;28;20000;-66
2022/12/19 02:24:09;;;;;;;;;;;;;;;1.86;66.03;101497.25;5015160;28;19956;-67
2022/12/19 02:26:53;;;;;;;;;;;;;;;1.87;65.89;101488.28;5014760;28;19914;-68
2022/12/19 02:29:36;;;;;;;;;;;;;;;1.88;65.64;101492.59;5014622;28;19917;-67
2022/12/19 02:32:17;;;;;;;;;;;;;;;1.88;66.21;101488.09;5014512;28;20349;-67
2022/12/19 02:34:58;;;;;;;;;;;;;;;1.90;65.89;101479.97;5014696;28;19913;-67
2022/12/19 02:37:26;;;;;;;;;;;;;;;1.90;65.88;101485.28;5014685;28;19956;-67
2022/12/19 02:40:02;;;;;;;;;;;;;;;1.92;65.85;101481.44;5015137;28;20043;-67
2022/12/19 02:42:29;;;;;;;;;;;;;;;1.94;65.98;101475.94;5014736;28;19920;-67
2022/12/19 02:44:55;;;;;;;;;;;;;;;1.95;65.87;101469.63;5014960;28;19919;-67
2022/12/19 02:47:21;;;;;;;;;;;;;;;1.96;65.92;101463.28;5014679;28;19921;-67
2022/12/19 02:49:46;;;;;;;;;;;;;;;1.97;65.86;101464.97;5014443;28;19918;-67
2022/12/19 02:52:31;;;;;;;;;;;;;;;1.98;65.87;101466.63;5014406;28;19957;-67
2022/12/19 02:55:08;;;;;;;;;;;;;;;2.00;65.99;101451.31;5014275;28;20383;-67
2022/12/19 02:57:52;;;;;;;;;;;;;;;2.01;66.29;101465.44;5014855;28;19940;-67
2022/12/19 03:00:19;;;;;;;;;;;;;;;2.01;66.12;101463.63;5014325;28;19922;-72
2022/12/19 03:02:56;;;;;;;;;;;;;;;2.01;66.46;101458.28;5014350;28;19913;-67
2022/12/19 03:05:26;;;;;;;;;;;;;;;2.03;66.07;101455.47;5014707;28;19914;-67
2022/12/19 03:07:55;;;;;;;;;;;;;;;2.05;66.15;101458.78;5014184;28;19960;-67
2022/12/19 03:10:27;;;;;;;;;;;;;;;2.07;66.31;101443.47;5012966;28;20269;-71
2022/12/19 03:12:55;;;;;;;;;;;;;;;2.07;66.22;101438.97;5014557;28;19913;-64
2022/12/19 03:15:21;;;;;;;;;;;;;;;2.08;66.04;101445.13;5014125;28;19921;-71
2022/12/19 03:17:46;;;;;;;;;;;;;;;2.09;66.31;101442.31;5014086;28;19914;-67
2022/12/19 03:20:24;;;;;;;;;;;;;;;2.10;66.42;101446.63;5013180;28;20060;-66
2022/12/19 03:22:49;;;;;;;;;;;;;;;2.12;66.53;101454.47;5014090;28;19913;-67
2022/12/19 03:25:15;;;;;;;;;;;;;;;2.14;66.23;101444.44;5012838;28;19917;-67
2022/12/19 03:27:40;;;;;;;;;;;;;;;2.13;66.18;101432.94;5014417;28;19928;-66
2022/12/19 03:30:07;;;;;;;;;;;;;;;2.16;66.23;101439.78;5013995;28;20261;-66
2022/12/19 03:32:35;;;;;;;;;;;;;;;2.17;66.65;101442.28;5013926;28;19913;-67
2022/12/19 03:35:03;;;;;;;;;;;;;;;2.20;66.50;101437.63;5013726;28;19913;-67
2022/12/19 03:37:30;;;;;;;;;;;;;;;2.21;66.39;101433.94;5013956;28;19917;-67
2022/12/19 03:40:01;;;;;;;;;;;;;;;2.22;66.57;101425.78;5014464;28;20266;-66
2022/12/19 03:45:14;;;;;;;;;;;;;;;2.24;66.62;101431.75;5016208;28;19971;-66
2022/12/19 03:47:43;;;;;;;;;;;;;;;2.27;66.51;101431.44;5018141;28;19921;-67
2022/12/19 03:50:09;;;;;;;;;;;;;;;2.28;66.69;101429.59;5017682;28;19924;-66
2022/12/19 03:52:38;;;;;;;;;;;;;;;2.30;66.44;101428.41;5017638;28;20326;-66
2022/12/19 03:55:24;;;;;;;;;;;;;;;2.31;66.39;101421.25;5018121;28;19913;-67
2022/12/19 03:57:52;;;;;;;;;;;;;;;2.32;66.74;101423.75;5010126;28;19920;-66
2022/12/19 04:00:18;;;;;;;;;;;;;;;2.35;66.71;101427.91;5018090;28;19920;-66
2022/12/19 04:02:46;;;;;;;;;;;;;;;2.36;66.60;101432.22;5017175;28;19960;-67
2022/12/19 04:05:14;;;;;;;;;;;;;;;2.37;66.71;101432.06;5017423;28;19913;-66
2022/12/19 04:07:40;;;;;;;;;;;;;;;2.40;66.77;101427.41;5016970;28;19985;-66
2022/12/19 04:10:08;;;;;;;;;;;;;;;2.42;66.79;101422.69;5017384;28;19917;-66
2022/12/19 04:12:37;;;;;;;;;;;;;;;2.43;66.70;101419.03;5017259;28;19920;-65
2022/12/19 04:15:03;;;;;;;;;;;;;;;2.45;66.85;101417.03;5017776;28;19914;-65
2022/12/19 04:17:28;;;;;;;;;;;;;;;2.45;66.82;101409.88;5015836;28;19921;-66
2022/12/19 04:20:02;;;;;;;;;;;;;;;2.47;66.89;101415.88;5017092;28;19992;-66
2022/12/19 04:22:30;;;;;;;;;;;;;;;2.49;66.93;101413.00;5017549;28;19913;-69
2022/12/19 04:24:57;;;;;;;;;;;;;;;2.51;66.77;101413.66;5017067;28;19918;-65
2022/12/19 04:27:22;;;;;;;;;;;;;;;2.52;66.72;101408.19;5016365;28;19936;-67
2022/12/19 04:29:50;;;;;;;;;;;;;;;2.54;66.51;101419.47;5017237;28;20361;-66
2022/12/19 04:32:15;;;;;;;;;;;;;;;2.56;66.92;101406.81;5016961;28;19956;-66
2022/12/19 04:34:40;;;;;;;;;;;;;;;2.58;66.72;101417.31;5016843;28;19951;-66
2022/12/19 04:37:06;;;;;;;;;;;;;;;2.59;66.83;101406.44;5016636;28;20258;-66
2022/12/19 04:39:31;;;;;;;;;;;;;;;2.61;66.95;101403.63;5016250;28;20431;-66
2022/12/19 04:41:57;;;;;;;;;;;;;;;2.65;66.77;101412.13;5016700;28;19922;-65
2022/12/19 04:44:22;;;;;;;;;;;;;;;2.66;67.02;101411.09;5016421;28;19917;-65
2022/12/19 04:46:47;;;;;;;;;;;;;;;2.68;66.76;101415.25;5016859;28;19959;-66
2022/12/19 04:49:12;;;;;;;;;;;;;;;2.70;66.68;101417.78;5015748;28;20342;-67
2022/12/19 04:51:38;;;;;;;;;;;;;;;2.72;66.99;101411.25;5016676;28;20281;-68
2022/12/19 04:54:03;;;;;;;;;;;;;;;2.73;67.01;101404.91;5016574;28;19917;-65
2022/12/19 04:56:28;;;;;;;;;;;;;;;2.75;66.90;101405.56;5016376;28;20268;-71
2022/12/19 04:58:57;;;;;;;;;;;;;;;2.77;66.98;101408.88;5016078;28;19917;-67
2022/12/19 05:01:22;;;;;;;;;;;;;;;2.79;67.26;101406.03;5016382;28;19921;-67
2022/12/19 05:03:47;;;;;;;;;;;;;;;2.81;67.16;101404.03;5016794;28;20420;-67
2022/12/19 05:06:13;;;;;;;;;;;;;;;2.83;67.56;101402.00;5016367;28;20004;-67
2022/12/19 05:08:39;;;;;;;;;;;;;;;2.85;67.19;101402.69;5016099;28;20060;-67
2022/12/19 05:11:05;;;;;;;;;;;;;;;2.87;67.25;101402.47;5015907;28;20320;-67
2022/12/19 05:13:30;;;;;;;;;;;;;;;2.90;67.17;101412.81;5016406;28;19917;-71
2022/12/19 05:16:00;;;;;;;;;;;;;;;2.92;67.12;101405.47;5015840;28;19924;-66
2022/12/19 05:18:25;;;;;;;;;;;;;;;2.93;67.37;101397.28;5016105;28;20008;-67
2022/12/19 05:20:51;;;;;;;;;;;;;;;2.96;67.08;101393.44;5016144;28;19941;-67
2022/12/19 05:23:16;;;;;;;;;;;;;;;2.98;67.41;101396.75;5016002;28;20348;-67
2022/12/19 05:25:42;;;;;;;;;;;;;;;2.99;67.27;101398.41;5015871;28;19980;-68
2022/12/19 05:28:07;;;;;;;;;;;;;;;3.02;67.35;101390.03;5015749;28;19924;-67
2022/12/19 05:30:32;;;;;;;;;;;;;;;3.03;67.27;101387.22;5015772;28;19917;-70
2022/12/19 05:32:57;;;;;;;;;;;;;;;3.06;67.55;101393.22;5015534;28;19921;-67
2022/12/19 05:35:23;;;;;;;;;;;;;;;3.07;67.53;101390.34;5015706;28;19924;-67
2022/12/19 05:37:48;;;;;;;;;;;;;;;3.10;67.51;101386.50;5014566;28;19924;-67
2022/12/19 05:40:13;;;;;;;;;;;;;;;3.13;67.58;101380.81;5016230;28;20008;-67
2022/12/19 05:42:38;;;;;;;;;;;;;;;3.14;67.66;101385.13;5016065;28;19955;-67
2022/12/19 05:45:04;;;;;;;;;;;;;;;3.16;67.57;101391.97;5015588;28;19918;-67
2022/12/19 05:47:29;;;;;;;;;;;;;;;3.18;67.46;101394.47;5015659;28;19998;-66
2022/12/19 05:49:54;;;;;;;;;;;;;;;3.21;67.44;101399.44;5015556;28;19956;-68
2022/12/19 05:52:19;;;;;;;;;;;;;;;3.21;67.45;101400.25;5015682;28;19953;-67
2022/12/19 05:54:44;;;;;;;;;;;;;;;3.23;67.59;101398.25;5015619;28;19924;-67
2022/12/19 05:57:10;;;;;;;;;;;;;;;3.27;67.60;101400.56;5015331;28;19917;-66
2022/12/19 05:59:35;;;;;;;;;;;;;;;3.28;67.53;101392.38;5014285;28;19917;-70
2022/12/19 06:02:00;;;;;;;;;;;;;;;3.30;67.42;101406.38;5015452;28;19917;-67
2022/12/19 06:04:26;;;;;;;;;;;;;;;3.32;67.46;101400.84;5015193;28;19960;-66
2022/12/19 06:06:51;;;;;;;;;;;;;;;3.34;67.85;101406.84;5013330;28;19914;-66
2022/12/19 06:09:16;;;;;;;;;;;;;;;3.35;67.67;101398.69;4997350;28;19972;-67
2022/12/19 06:11:41;;;;;;;;;;;;;;;3.38;67.64;101398.31;5014937;28;19960;-68
2022/12/19 06:14:07;;;;;;;;;;;;;;;3.40;67.79;101400.78;5015051;28;20067;-67
2022/12/19 06:16:32;;;;;;;;;;;;;;;3.41;67.70;101405.13;5014954;28;19972;-66
2022/12/19 06:18:57;;;;;;;;;;;;;;;3.43;67.73;101408.47;5014818;28;19989;-65
2022/12/19 06:21:23;;;;;;;;;;;;;;;3.43;67.80;101411.13;5014600;28;19917;-66
2022/12/19 06:23:49;;;;;;;;;;;;;;;3.46;67.99;101402.75;5014711;28;19921;-67
2022/12/19 06:26:17;;;;;;;;;;;;;;;3.48;68.17;101398.06;5014872;28;19924;-67
2022/12/19 06:28:42;;;;;;;;;;;;;;;3.50;68.17;101404.03;5014714;28;19935;-65
2022/12/19 06:31:07;;;;;;;;;;;;;;;3.51;68.28;101405.72;5013683;28;20365;-68
2022/12/19 06:33:33;;;;;;;;;;;;;;;3.53;67.80;101406.38;5014754;28;20417;-67
2022/12/19 06:35:59;;;;;;;;;;;;;;;3.56;68.23;101405.19;5014936;28;19949;-66
2022/12/19 06:38:25;;;;;;;;;;;;;;;3.59;68.09;101412.81;5012932;28;20012;-66
2022/12/19 06:43:34;;;;;;;;;;;;;;;3.62;67.95;101407.13;5014852;28;20005;-66
2022/12/19 06:45:59;;;;;;;;;;;;;;;3.63;68.47;101409.63;5014430;28;20366;-65
2022/12/19 06:48:26;;;;;;;;;;;;;;;3.66;68.06;101424.47;5014422;28;19924;-66
2022/12/19 06:50:51;;;;;;;;;;;;;;;3.67;68.54;101416.25;5014360;28;19914;-66
2022/12/19 06:53:16;;;;;;;;;;;;;;;3.69;68.49;101424.09;5014153;28;20371;-65
2022/12/19 06:55:41;;;;;;;;;;;;;;;3.69;68.70;101416.91;5014364;28;20257;-69
2022/12/19 06:58:06;;;;;;;;;;;;;;;3.72;68.49;101415.72;5014371;28;20277;-66
2022/12/19 07:00:34;;;;;;;;;;;;;;;3.74;68.57;101411.00;5014706;28;19917;-67
2022/12/19 07:03:00;;;;;;;;;;;;;;;3.77;68.31;101409.81;5014705;28;19918;-65
2022/12/19 07:05:25;;;;;;;;;;;;;;;3.79;68.33;101405.13;5014312;28;19917;-67
2022/12/19 07:07:51;;;;;;;;;;;;;;;3.80;68.77;101414.81;5014032;28;19976;-66
2022/12/19 07:10:16;;;;;;;;;;;;;;;3.82;68.49;101402.91;5014654;28;20017;-66
2022/12/19 07:12:41;;;;;;;;;;;;;;;3.83;68.59;101407.25;5013907;28;19917;-69
2022/12/19 07:15:07;;;;;;;;;;;;;;;3.85;69.00;101409.75;5013736;28;19964;-65
2022/12/19 07:17:35;;;;;;;;;;;;;;;3.87;68.72;101410.41;5013817;28;19933;-69
2022/12/19 07:20:01;;;;;;;;;;;;;;;3.89;68.97;101408.38;5016019;28;19917;-65
2022/12/19 07:22:28;;;;;;;;;;;;;;;3.89;68.52;101398.50;5017788;28;19968;-67
2022/12/19 07:24:55;;;;;;;;;;;;;;;3.93;68.91;101409.69;5017791;28;19913;-65
2022/12/19 07:27:21;;;;;;;;;;;;;;;3.92;68.95;101408.00;5018307;28;19918;-67
2022/12/19 07:29:47;;;;;;;;;;;;;;;3.95;69.11;101406.81;5017546;28;20364;-66
2022/12/19 07:32:12;;;;;;;;;;;;;;;3.96;68.90;101401.28;5017533;28;19909;-65
2022/12/19 07:34:37;;;;;;;;;;;;;;;4.00;68.98;101407.09;5017890;28;19918;-65
2022/12/19 07:37:02;;;;;;;;;;;;;;;4.01;68.92;101412.25;5016470;28;20325;-67
2022/12/19 07:39:28;;;;;;;;;;;;;;;4.02;69.08;101410.41;5018257;28;19926;-66
2022/12/19 07:41:53;;;;;;;;;;;;;;;4.04;69.46;101414.56;5016601;28;19918;-65
2022/12/19 07:44:18;;;;;;;;;;;;;;;4.06;69.31;101414.41;5017694;28;20364;-66
2022/12/19 07:46:43;;;;;;;;;;;;;;;4.07;69.33;101416.03;5017190;28;20277;-71
2022/12/19 07:49:09;;;;;;;;;;;;;;;4.09;69.32;101419.38;5017583;28;20320;-67
2022/12/19 07:51:34;;;;;;;;;;;;;;;4.10;69.12;101418.34;5017275;28;20288;-65
2022/12/19 07:53:59;;;;;;;;;;;;;;;4.12;69.34;101421.66;5017323;28;19920;-65
2022/12/19 07:56:25;;;;;;;;;;;;;;;4.16;69.46;101427.47;5017544;28;19924;-65
2022/12/19 07:58:51;;;;;;;;;;;;;;;4.17;69.67;101429.97;5016411;28;19940;-67
2022/12/19 08:01:16;;;;;;;;;;;;;;;4.18;69.38;101430.78;5017422;28;19918;-64
2022/12/19 08:03:41;;;;;;;;;;;;;;;4.20;69.45;101426.91;5016814;28;19921;-71
2022/12/19 08:06:07;;;;;;;;;;;;;;;4.22;69.21;101435.59;5017390;28;19960;-67
2022/12/19 08:08:32;;;;;;;;;;;;;;;4.25;69.27;101437.91;5017208;28;19913;-66
2022/12/19 08:11:05;;;;;;;;;;;;;;;4.27;69.40;101443.06;5017127;28;20008;-68
2022/12/19 08:13:30;;;;;;;;;;;;;;;4.29;69.76;101436.53;5016905;28;19913;-68
2022/12/19 08:15:58;;;;;;;;;;;;;;;4.30;69.37;101440.84;5016825;28;19992;-67
2022/12/19 08:18:24;;;;;;;;;;;;;;;4.31;69.72;101445.19;5017390;28;19968;-66
2022/12/19 08:20:50;;;;;;;;;;;;;;;4.33;69.73;101434.28;5016613;28;19926;-70
2022/12/19 08:23:15;;;;;;;;;;;;;;;4.34;70.19;101441.31;5016753;28;20028;-64
2022/12/19 08:25:41;;;;;;;;;;;;;;;4.37;69.79;101442.81;5017184;28;19917;-65
2022/12/19 08:28:06;;;;;;;;;;;;;;;4.38;70.00;101450.63;5016527;28;20371;-64
2022/12/19 08:30:31;;;;;;;;;;;;;;;4.40;69.86;101455.81;5016494;28;19913;-65
2022/12/19 08:32:56;;;;;;;;;;;;;;;4.41;69.94;101452.94;5016192;28;19925;-65
2022/12/19 08:35:22;;;;;;;;;;;;;;;4.44;69.85;101459.78;5016689;28;19917;-68
2022/12/19 08:37:47;;;;;;;;;;;;;;;4.46;69.92;101455.03;5015295;28;20292;-65
2022/12/19 08:40:12;;;;;;;;;;;;;;;4.48;69.81;101466.41;5016216;28;19927;-67
2022/12/19 08:42:37;;;;;;;;;;;;;;;4.49;69.90;101460.06;5016142;28;20004;-67
2022/12/19 08:45:03;;;;;;;;;;;;;;;4.51;70.08;101463.34;5016282;28;19917;-67
2022/12/19 08:47:28;;;;;;;;;;;;;;;4.54;69.91;101465.69;5016035;28;19925;-66
2022/12/19 08:49:53;;;;;;;;;;;;;;;4.55;69.86;101452.09;5016301;28;19972;-67
2022/12/19 08:52:18;;;;;;;;;;;;;;;4.57;69.79;101449.25;5016090;28;19921;-66
2022/12/19 08:54:44;;;;;;;;;;;;;;;4.60;70.04;101456.91;5016220;28;19917;-66
2022/12/19 08:57:09;;;;;;;;;;;;;;;4.61;69.87;101463.94;5015901;28;20019;-66
2022/12/19 08:59:34;;;;;;;;;;;;;;;4.64;69.86;101465.41;5014321;28;20004;-67
2022/12/19 09:02:00;;;;;;;;;;;;;;;4.65;69.80;101473.22;5015645;28;20415;-65
2022/12/19 09:04:25;;;;;;;;;;;;;;;4.66;69.63;101466.03;5015410;28;20243;-69
2022/12/19 09:06:50;;;;;;;;;;;;;;;4.69;70.02;101476.38;5015835;28;19917;-69
2022/12/19 09:09:15;;;;;;;;;;;;;;;4.71;70.03;101477.00;5016063;28;19918;-65
2022/12/19 09:11:41;;;;;;;;;;;;;;;4.72;69.91;101476.81;5016260;28;19925;-65
2022/12/19 09:14:06;;;;;;;;;;;;;;;4.74;70.05;101480.16;5015573;28;19918;-66
2022/12/19 09:16:31;;;;;;;;;;;;;;;4.75;70.18;101476.44;5016005;28;19923;-66
2022/12/19 09:18:59;;;;;;;;;;;;;;;4.77;70.02;101471.75;5014003;28;20338;-66
2022/12/19 09:21:27;;;;;;;;;;;;;;;4.78;69.98;101484.09;5015495;28;19924;-69
2022/12/19 09:23:54;;;;;;;;;;;;;;;4.80;70.25;101470.53;5014369;28;20313;-70
2022/12/19 09:26:20;;;;;;;;;;;;;;;4.83;70.00;101466.66;5015722;28;20067;-65
2022/12/19 09:28:46;;;;;;;;;;;;;;;4.84;70.09;101461.13;5015315;28;19909;-66
2022/12/19 09:31:12;;;;;;;;;;;;;;;4.87;70.15;101462.59;5015551;28;19973;-66
2022/12/19 09:33:38;;;;;;;;;;;;;;;4.89;69.89;101465.91;5015465;28;19913;-66
2022/12/19 09:36:04;;;;;;;;;;;;;;;4.91;70.11;101470.06;5015162;28;19920;-64
2022/12/19 09:38:30;;;;;;;;;;;;;;;4.93;69.76;101468.00;5015311;28;19924;-65
2022/12/19 09:41:14;;;;;;;;;;;;;;;4.94;70.21;101471.53;5015094;28;19959;-69
2022/12/19 09:43:42;;;;;;;;;;;;;;;4.96;70.30;101485.56;5014580;28;19925;-64
2022/12/19 09:46:15;;;;;;;;;;;;;;;4.98;70.23;101478.16;5014970;28;20013;-66
2022/12/19 09:48:40;;;;;;;;;;;;;;;5.01;70.07;101476.97;5015029;28;19913;-66
2022/12/19 09:51:12;;;;;;;;;;;;;;;5.02;70.20;101474.09;5014638;28;19932;-66
2022/12/19 09:53:40;;;;;;;;;;;;;;;5.04;70.15;101473.91;5014691;28;20381;-65
2022/12/19 09:56:11;;;;;;;;;;;;;;;5.05;70.10;101471.03;5014826;28;20371;-68
2022/12/19 09:58:40;;;;;;;;;;;;;;;5.08;70.19;101469.84;5015429;28;19920;-64
2022/12/19 10:01:11;;;;;;;;;;;;;;;5.08;70.27;101462.63;5014812;28;19943;-66
2022/12/19 10:03:52;;;;;;;;;;;;;;;5.12;70.47;101471.13;5014827;28;19940;-66
2022/12/19 10:06:19;;;;;;;;;;;;;;;5.12;70.18;101469.28;5015092;28;20320;-69
2022/12/19 10:08:44;;;;;;;;;;;;;;;5.14;70.52;101472.59;5014589;28;19968;-66
2022/12/19 10:11:13;;;;;;;;;;;;;;;5.17;70.56;101476.75;5014605;28;20003;-65
2022/12/19 10:13:38;;;;;;;;;;;;;;;5.19;70.31;101472.00;5015130;28;19920;-65
2022/12/19 10:16:09;;;;;;;;;;;;;;;5.21;70.32;101475.34;5014482;28;19931;-66
2022/12/19 10:18:34;;;;;;;;;;;;;;;5.21;70.25;101476.16;5014606;28;19913;-65
2022/12/19 10:21:06;;;;;;;;;;;;;;;5.24;70.32;101480.34;5013958;28;20420;-65
2022/12/19 10:23:31;;;;;;;;;;;;;;;5.26;70.39;101474.78;5014457;28;19913;-65
2022/12/19 10:25:59;;;;;;;;;;;;;;;5.28;70.67;101470.88;5014370;28;19913;-67
2022/12/19 10:28:42;;;;;;;;;;;;;;;5.29;70.48;101480.59;5014313;28;19913;-66
2022/12/19 10:31:15;;;;;;;;;;;;;;;5.30;70.72;101482.25;5013951;28;20408;-66
2022/12/19 10:33:49;;;;;;;;;;;;;;;5.31;70.78;101489.25;5014189;28;19941;-65
2022/12/19 10:36:14;;;;;;;;;;;;;;;5.33;71.24;101487.22;5013761;28;19913;-65
2022/12/19 10:39:03;;;;;;;;;;;;;;;5.36;70.78;101491.38;5014321;28;19963;-65
2022/12/19 10:41:32;;;;;;;;;;;;;;;5.39;71.00;101480.28;5014584;28;19921;-65
2022/12/19 10:44:06;;;;;;;;;;;;;;;5.40;70.69;101480.09;5013738;28;19913;-69
2022/12/19 10:46:31;;;;;;;;;;;;;;;5.43;70.92;101477.03;5013672;28;19914;-65
2022/12/19 10:49:01;;;;;;;;;;;;;;;5.45;71.04;101474.16;5013778;28;20004;-65
2022/12/19 10:51:27;;;;;;;;;;;;;;;5.46;71.08;101465.09;5014234;28;19914;-67
2022/12/19 10:53:54;;;;;;;;;;;;;;;5.49;70.87;101478.09;5013800;28;20364;-64
2022/12/19 10:56:21;;;;;;;;;;;;;;;5.50;70.95;101474.41;5013741;28;19917;-67
2022/12/19 10:58:50;;;;;;;;;;;;;;;5.53;70.73;101474.03;5013848;28;19969;-67
2022/12/19 11:01:26;;;;;;;;;;;;;;;5.56;70.82;101454.88;5014039;28;19975;-67
2022/12/19 11:03:52;;;;;;;;;;;;;;;5.58;70.89;101458.19;5014472;28;19921;-66
2022/12/19 11:06:32;;;;;;;;;;;;;;;5.60;71.08;101466.06;5012644;28;19921;-67
2022/12/19 11:09:16;;;;;;;;;;;;;;;5.62;71.14;101464.03;5013787;28;19936;-64
2022/12/19 11:11:42;;;;;;;;;;;;;;;5.63;70.80;101465.69;5013480;28;20314;-65
2022/12/19 11:14:19;;;;;;;;;;;;;;;5.66;71.22;101453.75;5013304;28;19925;-65
2022/12/19 11:16:44;;;;;;;;;;;;;;;5.67;71.03;101453.56;5013557;28;19920;-66
2022/12/19 11:19:39;;;;;;;;;;;;;;;5.69;70.87;101446.13;5013690;28;19913;-66
2022/12/19 11:22:23;;;;;;;;;;;;;;;5.72;71.16;101439.56;5004327;28;20345;-66
2022/12/19 11:24:49;;;;;;;;;;;;;;;5.74;71.30;101432.16;5012195;28;20361;-66
2022/12/19 11:27:35;;;;;;;;;;;;;;;5.77;71.35;101429.06;5012089;28;19914;-66
2022/12/19 11:30:05;;;;;;;;;;;;;;;5.79;71.37;101429.72;5013578;28;20337;-66
2022/12/19 11:32:33;;;;;;;;;;;;;;;5.80;71.23;101431.41;5013165;28;20435;-66
2022/12/19 11:34:59;;;;;;;;;;;;;;;5.84;71.05;101436.16;5013613;28;20012;-66
2022/12/19 11:37:29;;;;;;;;;;;;;;;5.86;71.31;101450.19;5014069;28;19913;-68
2022/12/19 11:39:59;;;;;;;;;;;;;;;5.87;71.38;101437.59;5013543;28;20484;-66
2022/12/19 11:42:25;;;;;;;;;;;;;;;5.90;71.36;101433.75;5013085;28;19913;-65
2022/12/19 11:45:01;;;;;;;;;;;;;;;5.92;71.12;101437.03;5013274;28;20350;-65
2022/12/19 11:47:39;;;;;;;;;;;;;;;5.95;70.93;101434.03;5012860;28;20416;-67
2022/12/19 11:50:14;;;;;;;;;;;;;;;5.97;70.96;101440.84;5013586;28;20464;-67
2022/12/19 11:52:42;;;;;;;;;;;;;;;6.00;70.92;101434.25;5011967;28;19917;-64
2022/12/19 11:55:16;;;;;;;;;;;;;;;6.03;71.05;101431.19;5012940;28;19913;-66
2022/12/19 11:57:42;;;;;;;;;;;;;;;6.05;70.93;101413.88;5014216;28;19938;-67
2022/12/19 12:00:11;;;;;;;;;;;;;;;6.07;70.82;101414.50;5013531;28;20341;-66
2022/12/19 12:02:39;;;;;;;;;;;;;;;6.09;70.99;101403.56;5013119;28;19917;-64
2022/12/19 12:05:19;;;;;;;;;;;;;;;6.13;70.93;101415.56;5013287;28;19917;-64
2022/12/19 12:07:50;;;;;;;;;;;;;;;6.16;71.05;101406.28;5016956;28;19913;-65
2022/12/19 12:10:15;;;;;;;;;;;;;;;6.17;70.94;101403.41;5017243;28;19920;-64
2022/12/19 12:12:59;;;;;;;;;;;;;;;6.19;70.85;101409.41;5016630;28;19914;-65
2022/12/19 12:15:39;;;;;;;;;;;;;;;6.22;70.70;101405.50;5017186;28;19996;-65
2022/12/19 12:18:08;;;;;;;;;;;;;;;6.24;70.77;101406.13;5015937;28;20399;-64
2022/12/19 12:20:39;;;;;;;;;;;;;;;6.26;70.85;101401.41;5016251;28;19935;-65
2022/12/19 12:23:16;;;;;;;;;;;;;;;6.28;70.96;101384.06;5016857;28;19914;-65
2022/12/19 12:26:00;;;;;;;;;;;;;;;6.31;70.98;101373.97;5016489;28;19918;-66
2022/12/19 12:28:44;;;;;;;;;;;;;;;6.33;70.83;101380.81;5016826;28;19937;-66
2022/12/19 12:31:26;;;;;;;;;;;;;;;6.35;70.69;101369.84;5016451;28;19921;-65
2022/12/19 12:33:54;;;;;;;;;;;;;;;6.37;71.05;101365.13;5016675;28;19913;-67
2022/12/19 12:36:34;;;;;;;;;;;;;;;6.39;70.88;101357.72;5016209;28;19924;-65
2022/12/19 12:39:07;;;;;;;;;;;;;;;6.40;71.15;101354.84;5016722;28;20269;-65
2022/12/19 12:44:17;;;;;;;;;;;;;;;6.46;71.21;101372.81;5016141;28;19920;-65
2022/12/19 12:46:58;;;;;;;;;;;;;;;6.49;70.80;101369.72;5016007;28;19917;-67
2022/12/19 12:49:33;;;;;;;;;;;;;;;6.52;71.11;101368.50;5016102;28;19921;-67
2022/12/19 12:51:59;;;;;;;;;;;;;;;6.54;70.81;101355.69;5016460;28;19920;-65
2022/12/19 12:54:27;;;;;;;;;;;;;;;6.58;70.88;101366.88;5015983;28;19917;-68
2022/12/19 12:56:53;;;;;;;;;;;;;;;6.59;70.69;101352.41;5015876;28;20304;-65
2022/12/19 12:59:25;;;;;;;;;;;;;;;6.61;70.84;101359.25;5016445;28;20384;-68
2022/12/19 13:01:52;;;;;;;;;;;;;;;6.63;70.97;101343.78;5016411;28;19952;-66
2022/12/19 13:04:19;;;;;;;;;;;;;;;6.65;70.73;101332.81;5015846;28;19952;-66